Kezdőlap
METAR-TAF:

METAR-TAF

Repülőterek :

Perm, Oroszország

földrajzi szélesség: 58-00N, földrajzi hosszúság: 056-15E, magasság: 170 m

Jelenlegi meteorológiai megfigyelések

A jelentés 19 perccel ezelõtt készült, 03:00 UTC
Délkeleti szél 8 kt
Hőmérséklet -4°C
Páratartalom 93%
Légköri nyomás 1025 hPa
Látótávolság 10 km, vagy több
felhőtlen 1500 m magasságban, és nincs gomolyfelhõ

METAR: USPP 120300Z 13004MPS CAVOK M04/M05 Q1025 R21/450155 NOSIG RMK QFE758

Idő: 08:19 (03:19 UTC)

Előrejelzés

A jelentés 1 órával és 21 perccel ezelõtt készült, 01:58 UTC
Az előrejelzés 12-én 03 óra UTC és 13-én 03 óra UTC között érvényes
Kelet-délkeleti szél 6 kt
Látótávolság 10 km, vagy több
Szakadozott felhőzet 4000 lábon
12-én 03 óra UTC és 12-én 07 óra UTC között ideiglenes
Látótávolság: 3100 m
Szakadozott felhőzet 1100 lábon
enyhe havazás

TAF: USPP 120158Z 1203/1303 11003MPS 9999 BKN040 TEMPO 1203/1207 3100 -SN BKN011

Meteorológiai megfigyelések és előrejelzések több, mint 4000 repülőtéren (METAR és TAF jelentéseket).

A térképen piros és sárga pontok jelzik az elérhető meteorológiai állomásokat.

Mozgassa az egeret a pont fölött, hogy megjelenjen az állomás neve.

Azután kattintson az időjárási megfigyelések és előrejelzések megtekintéséhez.

A térkép megváltoztatása: kattintson a fekete keresztel jelölt zöld gombra ráközelítéshez, a vonallal jelölt zöld gombra távolításhoz, vagy a zöld nyilakra a szomszédos térképek eléréséhez.


METAR-TAF: